Terminal Aerodrome Forecast
Issued by NWS

Home | Current Version | Previous Version | Text Only | Print | Product List | Glossary On
Versions: 1 2 3 4 5 6 7 8 9 10 11 12 13 14 15 16 17 18 19
295
FTUS43 KLSX 192341
TAFUIN
TAF
KUIN 192341Z 2000/2024 14007KT P6SM SCT250
     FM201000 16008KT 4SM BR BKN010
     FM201400 15010KT P6SM VCSH BKN015
     FM201800 17013G20KT P6SM -SHRA OVC035=

USA.gov is the U.S. government's official web portal to all federal, state and local government web resources and services.